createdAt,value
2023-01-10T00:00:13.414Z,1011.24
2023-01-10T00:01:13.491Z,1011.28
2023-01-10T00:02:13.700Z,1011.26
2023-01-10T00:03:13.943Z,1011.26
2023-01-10T00:04:13.566Z,1011.26
2023-01-10T00:05:13.722Z,1011.27
2023-01-10T00:06:13.894Z,1011.35
2023-01-10T00:07:12.846Z,1011.37
2023-01-10T00:08:14.020Z,1011.41
2023-01-10T00:09:13.231Z,1011.46
2023-01-10T00:10:13.371Z,1011.43
2023-01-10T00:11:13.381Z,1011.52
2023-01-10T00:12:13.812Z,1011.55
2023-01-10T00:13:13.810Z,1011.56
2023-01-10T00:14:13.913Z,1011.53
2023-01-10T00:15:13.229Z,1011.60
2023-01-10T00:16:13.254Z,1011.62
2023-01-10T00:17:13.183Z,1011.62
2023-01-10T00:18:13.356Z,1011.67
2023-01-10T00:19:13.239Z,1011.69
2023-01-10T00:20:13.294Z,1011.66
2023-01-10T00:21:13.138Z,1011.71
2023-01-10T00:22:13.231Z,1011.72
2023-01-10T00:23:13.183Z,1011.74
2023-01-10T00:24:13.431Z,1011.82
2023-01-10T00:25:13.523Z,1011.77
2023-01-10T00:26:13.483Z,1011.78
2023-01-10T00:27:13.559Z,1011.80
2023-01-10T00:28:13.575Z,1011.85
2023-01-10T00:29:13.968Z,1011.85
2023-01-10T00:31:13.981Z,1011.89
2023-01-10T00:32:13.168Z,1011.90
2023-01-10T00:33:13.569Z,1011.95
2023-01-10T00:34:13.531Z,1012.00
2023-01-10T00:35:13.433Z,1012.03
2023-01-10T00:36:13.416Z,1012.03
2023-01-10T00:37:13.312Z,1012.08
2023-01-10T00:38:13.633Z,1012.11
2023-01-10T00:39:13.537Z,1012.13
2023-01-10T00:40:13.469Z,1012.08
2023-01-10T00:41:13.391Z,1012.13
2023-01-10T00:42:13.435Z,1012.16
2023-01-10T00:43:13.829Z,1012.17
2023-01-10T00:44:13.804Z,1012.19
2023-01-10T00:45:14.013Z,1012.22
2023-01-10T00:46:13.138Z,1012.17
2023-01-10T00:47:13.542Z,1012.19
2023-01-10T00:48:13.651Z,1012.25
2023-01-10T00:49:14.023Z,1012.22
2023-01-10T00:50:13.020Z,1012.28
2023-01-10T00:51:13.168Z,1012.28
2023-01-10T00:52:20.071Z,1012.26
2023-01-10T00:53:33.216Z,1012.29
2023-01-10T00:54:25.307Z,1012.32
2023-01-10T00:55:13.538Z,1012.34
2023-01-10T00:56:13.546Z,1012.37
2023-01-10T00:57:22.156Z,1012.35
2023-01-10T00:58:13.525Z,1012.41
2023-01-10T00:59:13.854Z,1012.42
2023-01-10T01:00:13.778Z,1012.41
2023-01-10T01:01:14.365Z,1012.47
2023-01-10T01:02:13.915Z,1012.47
2023-01-10T01:03:13.420Z,1012.50
2023-01-10T01:04:18.857Z,1012.54
2023-01-10T01:05:18.930Z,1012.55
2023-01-10T01:07:20.342Z,1012.58
2023-01-10T01:08:13.243Z,1012.60
2023-01-10T01:09:18.443Z,1012.59
2023-01-10T01:10:13.327Z,1012.60
2023-01-10T01:11:13.279Z,1012.57
2023-01-10T01:12:13.279Z,1012.61
2023-01-10T01:13:35.205Z,1012.68
2023-01-10T01:14:23.455Z,1012.68
2023-01-10T01:15:13.522Z,1012.69
2023-01-10T01:16:14.010Z,1012.70
2023-01-10T01:17:13.171Z,1012.72
2023-01-10T01:18:26.837Z,1012.77
2023-01-10T01:19:14.580Z,1012.76
2023-01-10T01:20:14.846Z,1012.79
2023-01-10T01:21:13.752Z,1012.84
2023-01-10T01:22:23.901Z,1012.86
2023-01-10T01:23:22.266Z,1012.84
2023-01-10T01:24:24.803Z,1012.80
2023-01-10T01:25:24.221Z,1012.82
2023-01-10T01:26:28.693Z,1012.86
2023-01-10T01:27:24.081Z,1012.90
2023-01-10T01:28:18.466Z,1012.94
2023-01-10T01:30:33.806Z,1013.00
2023-01-10T01:31:34.116Z,1012.97
2023-01-10T01:32:24.065Z,1012.99
2023-01-10T01:33:13.384Z,1013.02
2023-01-10T01:35:55.533Z,1013.07
2023-01-10T01:36:18.207Z,1013.13
2023-01-10T01:38:42.249Z,1013.23
2023-01-10T01:39:24.093Z,1013.21
2023-01-10T01:40:13.228Z,1013.25
2023-01-10T01:41:13.273Z,1013.31
2023-01-10T01:42:13.683Z,1013.29
2023-01-10T01:43:17.287Z,1013.30
2023-01-10T01:44:13.340Z,1013.30
2023-01-10T01:45:13.536Z,1013.26
2023-01-10T01:46:25.717Z,1013.35
2023-01-10T01:47:15.611Z,1013.35
2023-01-10T01:49:27.394Z,1013.29
2023-01-10T01:50:13.701Z,1013.33
2023-01-10T01:51:18.989Z,1013.34
2023-01-10T01:52:23.332Z,1013.39
2023-01-10T01:53:35.228Z,1013.40
2023-01-10T01:54:18.860Z,1013.41
2023-01-10T01:55:13.030Z,1013.43
2023-01-10T01:56:13.183Z,1013.43
2023-01-10T01:57:13.728Z,1013.43
2023-01-10T01:58:44.789Z,1013.46
2023-01-10T01:59:13.570Z,1013.50
2023-01-10T02:00:16.056Z,1013.53
2023-01-10T02:01:13.290Z,1013.56
2023-01-10T02:02:13.906Z,1013.53
2023-01-10T02:03:18.593Z,1013.58
2023-01-10T02:04:25.522Z,1013.65
2023-01-10T02:06:12.997Z,1013.54
2023-01-10T02:07:13.102Z,1013.57
2023-01-10T02:08:13.244Z,1013.62
2023-01-10T02:09:13.234Z,1013.62
2023-01-10T02:10:13.200Z,1013.59
2023-01-10T02:12:13.587Z,1013.64
2023-01-10T02:13:36.643Z,1013.62
2023-01-10T02:14:14.016Z,1013.62
2023-01-10T02:15:15.296Z,1013.64
2023-01-10T02:16:13.705Z,1013.58
2023-01-10T02:17:13.929Z,1013.53
2023-01-10T02:18:12.895Z,1013.56
2023-01-10T02:19:28.038Z,1013.60
2023-01-10T02:20:13.032Z,1013.62
2023-01-10T02:21:13.299Z,1013.66
2023-01-10T02:22:29.183Z,1013.62
2023-01-10T02:23:13.335Z,1013.62
2023-01-10T02:24:13.485Z,1013.66
2023-01-10T02:25:13.729Z,1013.64
2023-01-10T02:26:24.363Z,1013.64
2023-01-10T02:27:13.140Z,1013.70
2023-01-10T02:28:13.356Z,1013.66
2023-01-10T02:29:18.768Z,1013.71
2023-01-10T02:30:13.708Z,1013.72
2023-01-10T02:31:13.803Z,1013.67
2023-01-10T02:32:28.603Z,1013.76
2023-01-10T02:33:13.375Z,1013.82
2023-01-10T02:34:18.483Z,1013.78
2023-01-10T02:35:13.654Z,1013.83
2023-01-10T02:36:13.574Z,1013.84
2023-01-10T02:37:13.598Z,1013.84
2023-01-10T02:38:13.794Z,1013.81
2023-01-10T02:39:13.791Z,1013.81
2023-01-10T02:40:13.988Z,1013.75
2023-01-10T02:41:13.218Z,1013.78
2023-01-10T02:42:13.466Z,1013.75
2023-01-10T02:43:13.470Z,1013.77
2023-01-10T02:44:13.527Z,1013.75
2023-01-10T02:45:13.520Z,1013.77
2023-01-10T02:46:13.502Z,1013.82
2023-01-10T02:47:13.700Z,1013.81
2023-01-10T02:48:13.774Z,1013.79
2023-01-10T02:49:15.049Z,1013.79
2023-01-10T02:50:13.360Z,1013.81
2023-01-10T02:51:13.347Z,1013.86
2023-01-10T02:52:14.113Z,1013.85
2023-01-10T02:53:13.162Z,1013.87
2023-01-10T02:54:13.288Z,1013.90
2023-01-10T02:55:13.523Z,1013.92
2023-01-10T02:56:13.573Z,1013.92
2023-01-10T02:57:13.714Z,1013.93
2023-01-10T02:58:13.648Z,1013.96
2023-01-10T02:59:13.672Z,1013.93
2023-01-10T03:00:13.579Z,1013.94
2023-01-10T03:01:13.700Z,1013.93
2023-01-10T03:02:13.925Z,1013.94
2023-01-10T03:03:14.200Z,1013.97
2023-01-10T03:04:13.460Z,1013.96
2023-01-10T03:05:13.564Z,1013.92
2023-01-10T03:06:13.678Z,1013.95
2023-01-10T03:07:13.766Z,1013.96
2023-01-10T03:08:13.853Z,1013.97
2023-01-10T03:09:13.899Z,1014.00
2023-01-10T03:10:13.117Z,1014.04
2023-01-10T03:11:13.136Z,1014.00
2023-01-10T03:12:13.151Z,1014.02
2023-01-10T03:13:13.165Z,1014.00
2023-01-10T03:14:18.474Z,1014.04
2023-01-10T03:15:13.513Z,1014.02
2023-01-10T03:16:13.552Z,1013.99
2023-01-10T03:17:13.692Z,1014.00
2023-01-10T03:18:13.635Z,1014.03
2023-01-10T03:19:13.921Z,1013.98
2023-01-10T03:20:12.927Z,1014.02
2023-01-10T03:21:12.995Z,1013.98
2023-01-10T03:22:13.061Z,1014.05
2023-01-10T03:23:13.380Z,1014.03
2023-01-10T03:24:13.289Z,1014.05
2023-01-10T03:25:13.526Z,1014.00
2023-01-10T03:26:14.103Z,1014.12
2023-01-10T03:27:13.359Z,1014.12
2023-01-10T03:28:13.711Z,1014.17
2023-01-10T03:29:13.898Z,1014.20
2023-01-10T03:30:13.250Z,1014.21
2023-01-10T03:31:13.353Z,1014.24
2023-01-10T03:32:13.387Z,1014.28
2023-01-10T03:33:13.670Z,1014.28
2023-01-10T03:34:13.565Z,1014.29
2023-01-10T03:35:13.572Z,1014.34
2023-01-10T03:36:13.429Z,1014.42
2023-01-10T03:37:13.371Z,1014.43
2023-01-10T03:38:13.346Z,1014.44
2023-01-10T03:39:13.428Z,1014.43
2023-01-10T03:40:13.454Z,1014.47
2023-01-10T03:41:13.453Z,1014.50
2023-01-10T03:42:13.380Z,1014.57
2023-01-10T03:43:13.452Z,1014.50
2023-01-10T03:44:13.724Z,1014.54
2023-01-10T03:45:13.913Z,1014.58
2023-01-10T03:46:13.199Z,1014.60
2023-01-10T03:47:13.189Z,1014.74
2023-01-10T03:48:13.207Z,1014.70
2023-01-10T03:49:13.329Z,1014.66
2023-01-10T03:50:13.336Z,1014.74
2023-01-10T03:51:13.339Z,1014.77
2023-01-10T03:52:13.472Z,1014.76
2023-01-10T03:53:13.861Z,1014.70
2023-01-10T03:54:13.885Z,1014.76
2023-01-10T03:55:12.971Z,1014.74
2023-01-10T03:56:13.197Z,1014.76
2023-01-10T03:57:13.234Z,1014.75
2023-01-10T03:58:13.201Z,1014.76
2023-01-10T03:59:13.213Z,1014.82
2023-01-10T04:00:13.128Z,1014.72
2023-01-10T04:01:13.320Z,1014.78
2023-01-10T04:02:13.296Z,1014.80
2023-01-10T04:03:13.337Z,1014.82
2023-01-10T04:04:13.295Z,1014.81
2023-01-10T04:05:13.560Z,1014.80
2023-01-10T04:06:13.565Z,1014.82
2023-01-10T04:07:13.823Z,1014.80
2023-01-10T04:08:14.028Z,1014.88
2023-01-10T04:09:12.904Z,1014.83
2023-01-10T04:10:12.839Z,1014.97
2023-01-10T04:11:13.910Z,1014.93
2023-01-10T04:12:12.888Z,1015.02
2023-01-10T04:13:12.954Z,1015.02
2023-01-10T04:14:13.486Z,1015.05
2023-01-10T04:15:13.462Z,1015.05
2023-01-10T04:16:13.568Z,1015.02
2023-01-10T04:17:13.536Z,1015.04
2023-01-10T04:18:13.679Z,1015.05
2023-01-10T04:19:14.117Z,1015.03
2023-01-10T04:20:13.418Z,1015.04
2023-01-10T04:21:13.598Z,1015.05
2023-01-10T04:22:13.603Z,1015.06
2023-01-10T04:23:13.655Z,1015.06
2023-01-10T04:24:13.762Z,1015.11
2023-01-10T04:25:13.872Z,1015.14
2023-01-10T04:26:13.905Z,1015.17
2023-01-10T04:27:13.044Z,1015.18
2023-01-10T04:28:12.996Z,1015.23
2023-01-10T04:29:13.110Z,1015.16
2023-01-10T04:30:13.103Z,1015.27
2023-01-10T04:31:13.364Z,1015.29
2023-01-10T04:32:13.567Z,1015.28
2023-01-10T04:33:13.617Z,1015.23
2023-01-10T04:34:13.489Z,1015.26
2023-01-10T04:35:13.871Z,1015.24
2023-01-10T04:36:13.739Z,1015.23
2023-01-10T04:37:13.965Z,1015.27
2023-01-10T04:38:13.033Z,1015.19
2023-01-10T04:39:17.980Z,1015.21
2023-01-10T04:40:12.895Z,1015.21
2023-01-10T04:41:12.823Z,1015.21
2023-01-10T04:42:13.718Z,1015.22
2023-01-10T04:43:13.675Z,1015.23
2023-01-10T04:44:13.534Z,1015.24
2023-01-10T04:45:13.886Z,1015.24
2023-01-10T04:46:13.067Z,1015.23
2023-01-10T04:47:13.215Z,1015.25
2023-01-10T04:48:13.174Z,1015.27
2023-01-10T04:49:13.221Z,1015.29
2023-01-10T04:50:13.326Z,1015.29
2023-01-10T04:51:13.365Z,1015.28
2023-01-10T04:52:13.280Z,1015.26
2023-01-10T04:53:13.522Z,1015.28
2023-01-10T04:54:13.876Z,1015.34
2023-01-10T04:55:13.988Z,1015.39
2023-01-10T04:56:13.233Z,1015.38
2023-01-10T04:57:13.329Z,1015.38
2023-01-10T04:58:13.394Z,1015.42
2023-01-10T04:59:13.570Z,1015.39
2023-01-10T05:00:13.570Z,1015.40
2023-01-10T05:01:13.574Z,1015.41
2023-01-10T05:02:14.792Z,1015.41
2023-01-10T05:03:13.937Z,1015.40
2023-01-10T05:04:13.160Z,1015.40
2023-01-10T05:05:13.184Z,1015.42
2023-01-10T05:06:13.362Z,1015.43
2023-01-10T05:07:13.617Z,1015.48
2023-01-10T05:08:13.824Z,1015.52
2023-01-10T05:09:13.930Z,1015.48
2023-01-10T05:10:12.896Z,1015.52
2023-01-10T05:11:13.738Z,1015.49
2023-01-10T05:12:13.656Z,1015.43
2023-01-10T05:13:13.711Z,1015.52
2023-01-10T05:14:13.798Z,1015.50
2023-01-10T05:15:13.774Z,1015.55
2023-01-10T05:16:14.361Z,1015.48
2023-01-10T05:17:13.332Z,1015.59
2023-01-10T05:18:13.752Z,1015.55
2023-01-10T05:19:14.686Z,1015.59
2023-01-10T05:20:13.720Z,1015.58
2023-01-10T05:21:13.896Z,1015.61
2023-01-10T05:22:12.815Z,1015.61
2023-01-10T05:23:14.151Z,1015.59
2023-01-10T05:24:13.011Z,1015.55
2023-01-10T05:25:18.040Z,1015.60
2023-01-10T05:26:12.965Z,1015.56
2023-01-10T05:27:18.135Z,1015.62
2023-01-10T05:28:13.142Z,1015.65
2023-01-10T05:29:13.149Z,1015.70
2023-01-10T05:30:13.110Z,1015.73
2023-01-10T05:31:13.098Z,1015.76
2023-01-10T05:32:13.378Z,1015.79
2023-01-10T05:33:13.398Z,1015.83
2023-01-10T05:34:13.712Z,1015.80
2023-01-10T05:35:13.548Z,1015.81
2023-01-10T05:36:13.476Z,1015.79
2023-01-10T05:37:13.386Z,1015.85
2023-01-10T05:38:13.609Z,1015.86
2023-01-10T05:39:14.064Z,1015.89
2023-01-10T05:40:13.345Z,1015.82
2023-01-10T05:41:13.439Z,1015.85
2023-01-10T05:42:13.612Z,1015.82
2023-01-10T05:43:14.036Z,1015.81
2023-01-10T05:44:51.778Z,1015.87
2023-01-10T05:45:15.061Z,1015.93
2023-01-10T05:46:13.484Z,1015.90
2023-01-10T05:47:13.629Z,1015.93
2023-01-10T05:48:13.546Z,1015.92
2023-01-10T05:49:13.502Z,1015.93
2023-01-10T05:50:13.488Z,1015.93
2023-01-10T05:51:13.752Z,1015.97
2023-01-10T05:52:13.806Z,1016.00
2023-01-10T05:53:14.224Z,1015.96
2023-01-10T05:54:13.205Z,1016.01
2023-01-10T05:55:13.245Z,1016.05
2023-01-10T05:56:13.605Z,1016.06
2023-01-10T05:57:13.865Z,1016.06
2023-01-10T05:58:13.972Z,1016.10
2023-01-10T05:59:27.341Z,1016.10
2023-01-10T06:00:12.898Z,1016.13
2023-01-10T06:01:13.131Z,1016.13
2023-01-10T06:02:13.437Z,1016.16
2023-01-10T06:03:13.970Z,1016.14
2023-01-10T06:04:13.337Z,1016.15
2023-01-10T06:05:13.325Z,1016.18
2023-01-10T06:07:12.956Z,1016.23
2023-01-10T06:08:18.120Z,1016.25
2023-01-10T06:09:12.999Z,1016.25
2023-01-10T06:10:12.968Z,1016.23
2023-01-10T06:11:13.387Z,1016.19
2023-01-10T06:12:13.265Z,1016.22
2023-01-10T06:13:13.368Z,1016.22
2023-01-10T06:14:18.650Z,1016.28
2023-01-10T06:15:13.843Z,1016.24
2023-01-10T06:16:14.435Z,1016.25
2023-01-10T06:17:13.578Z,1016.28
2023-01-10T06:18:13.579Z,1016.30
2023-01-10T06:19:13.542Z,1016.30
2023-01-10T06:20:13.529Z,1016.30
2023-01-10T06:21:13.563Z,1016.33
2023-01-10T06:22:13.562Z,1016.31
2023-01-10T06:23:13.496Z,1016.33
2023-01-10T06:24:13.863Z,1016.33
2023-01-10T06:25:13.755Z,1016.33
2023-01-10T06:26:14.280Z,1016.32
2023-01-10T06:27:13.298Z,1016.30
2023-01-10T06:28:13.288Z,1016.33
2023-01-10T06:29:13.269Z,1016.28
2023-01-10T06:30:13.415Z,1016.31
2023-01-10T06:31:13.657Z,1016.33
2023-01-10T06:32:13.604Z,1016.39
2023-01-10T06:33:13.503Z,1016.46
2023-01-10T06:34:13.450Z,1016.51
2023-01-10T06:35:18.684Z,1016.60
2023-01-10T06:36:13.626Z,1016.64
2023-01-10T06:37:13.567Z,1016.65
2023-01-10T06:38:13.515Z,1016.72
2023-01-10T06:39:13.414Z,1016.71
2023-01-10T06:40:13.300Z,1016.75
2023-01-10T06:41:25.884Z,1016.78
2023-01-10T06:42:12.809Z,1016.87
2023-01-10T06:43:13.958Z,1016.91
2023-01-10T06:44:12.829Z,1016.87
2023-01-10T06:45:13.721Z,1016.94
2023-01-10T06:46:13.938Z,1016.94
2023-01-10T06:47:12.935Z,1016.95
2023-01-10T06:48:13.025Z,1016.91
2023-01-10T06:49:13.257Z,1016.89
2023-01-10T06:50:13.226Z,1016.86
2023-01-10T06:51:13.172Z,1016.90
2023-01-10T06:52:13.188Z,1016.92
2023-01-10T06:53:13.239Z,1016.95
2023-01-10T06:54:13.143Z,1017.00
2023-01-10T06:55:14.098Z,1017.01
2023-01-10T06:56:13.359Z,1017.03
2023-01-10T06:57:13.431Z,1017.01
2023-01-10T06:58:13.481Z,1017.00
2023-01-10T06:59:13.590Z,1016.99
2023-01-10T07:00:13.565Z,1017.06
2023-01-10T07:01:13.644Z,1017.15
2023-01-10T07:02:13.654Z,1017.14
2023-01-10T07:03:13.655Z,1017.10
2023-01-10T07:04:13.719Z,1017.09
2023-01-10T07:05:13.947Z,1017.09
2023-01-10T07:06:12.814Z,1017.12
2023-01-10T07:07:13.784Z,1017.10
2023-01-10T07:08:14.059Z,1017.16
2023-01-10T07:09:13.047Z,1017.23
2023-01-10T07:10:12.931Z,1017.28
2023-01-10T07:11:12.837Z,1017.32
2023-01-10T07:12:13.819Z,1017.28
2023-01-10T07:13:13.936Z,1017.24
2023-01-10T07:14:12.795Z,1017.26
2023-01-10T07:15:13.748Z,1017.32
2023-01-10T07:16:13.754Z,1017.27
2023-01-10T07:17:13.911Z,1017.17
2023-01-10T07:19:13.869Z,1017.17
2023-01-10T07:20:13.764Z,1017.21
2023-01-10T07:21:13.673Z,1017.23
2023-01-10T07:22:13.543Z,1017.23
2023-01-10T07:23:13.771Z,1017.25
2023-01-10T07:24:14.030Z,1017.21
2023-01-10T07:25:13.184Z,1017.25
2023-01-10T07:26:13.223Z,1017.31
2023-01-10T07:27:13.131Z,1017.33
2023-01-10T07:28:13.083Z,1017.40
2023-01-10T07:29:12.947Z,1017.30
2023-01-10T07:30:13.166Z,1017.38
2023-01-10T07:31:13.320Z,1017.32
2023-01-10T07:32:13.523Z,1017.35
2023-01-10T07:33:13.848Z,1017.35
2023-01-10T07:34:13.942Z,1017.35
2023-01-10T07:35:12.998Z,1017.38
2023-01-10T07:36:13.138Z,1017.38
2023-01-10T07:37:13.153Z,1017.35
2023-01-10T07:38:15.804Z,1017.38
2023-01-10T07:39:39.115Z,1017.39
2023-01-10T07:40:23.295Z,1017.39
2023-01-10T07:41:13.550Z,1017.39
2023-01-10T07:42:23.954Z,1017.37
2023-01-10T07:43:12.880Z,1017.37
2023-01-10T07:44:39.915Z,1017.39
2023-01-10T07:45:12.870Z,1017.44
2023-01-10T07:46:17.358Z,1017.44
2023-01-10T07:47:13.291Z,1017.48
2023-01-10T07:48:35.925Z,1017.50
2023-01-10T07:49:13.173Z,1017.55
2023-01-10T07:50:13.064Z,1017.61
2023-01-10T07:51:13.388Z,1017.56
2023-01-10T07:52:13.345Z,1017.59
2023-01-10T07:53:13.382Z,1017.57
2023-01-10T07:54:14.849Z,1017.60
2023-01-10T07:55:13.046Z,1017.65
2023-01-10T07:57:12.835Z,1017.64
2023-01-10T07:58:15.766Z,1017.57
2023-01-10T07:59:15.366Z,1017.64
2023-01-10T08:01:33.921Z,1017.68
2023-01-10T08:02:13.200Z,1017.65
2023-01-10T08:04:13.743Z,1017.64
2023-01-10T08:05:13.965Z,1017.67
2023-01-10T08:06:15.312Z,1017.67
2023-01-10T08:07:13.630Z,1017.73
2023-01-10T08:08:13.738Z,1017.73
2023-01-10T08:09:13.904Z,1017.79
2023-01-10T08:10:12.716Z,1017.80
2023-01-10T08:11:13.638Z,1017.82
2023-01-10T08:12:13.575Z,1017.86
2023-01-10T08:13:18.757Z,1017.88
2023-01-10T08:14:13.392Z,1017.90
2023-01-10T08:15:13.320Z,1017.95
2023-01-10T08:16:13.482Z,1017.99
2023-01-10T08:17:13.470Z,1017.97
2023-01-10T08:18:13.547Z,1017.97
2023-01-10T08:19:13.747Z,1017.96
2023-01-10T08:20:13.805Z,1017.98
2023-01-10T08:21:13.846Z,1017.99
2023-01-10T08:22:13.878Z,1017.95
2023-01-10T08:23:13.951Z,1018.01
2023-01-10T08:24:12.867Z,1018.01
2023-01-10T08:25:13.791Z,1018.04
2023-01-10T08:26:13.808Z,1018.05
2023-01-10T08:27:13.896Z,1018.08
2023-01-10T08:28:12.824Z,1018.08
2023-01-10T08:29:13.688Z,1018.09
2023-01-10T08:30:13.980Z,1018.04
2023-01-10T08:31:13.095Z,1017.99
2023-01-10T08:32:13.192Z,1018.00
2023-01-10T08:33:13.355Z,1018.03
2023-01-10T08:34:13.549Z,1017.97
2023-01-10T08:35:13.557Z,1018.04
2023-01-10T08:36:13.515Z,1017.99
2023-01-10T08:37:13.512Z,1018.03
2023-01-10T08:38:13.895Z,1018.04
2023-01-10T08:39:12.852Z,1018.01
2023-01-10T08:40:13.775Z,1017.97
2023-01-10T08:41:14.133Z,1018.05
2023-01-10T08:42:13.080Z,1017.96
2023-01-10T08:43:12.957Z,1018.00
2023-01-10T08:44:12.860Z,1018.02
2023-01-10T08:45:13.769Z,1018.06
2023-01-10T08:46:13.753Z,1018.08
2023-01-10T08:47:13.588Z,1018.08
2023-01-10T08:48:13.668Z,1018.12
2023-01-10T08:49:13.691Z,1018.05
2023-01-10T08:50:13.672Z,1018.12
2023-01-10T08:51:13.583Z,1018.16
2023-01-10T08:52:13.928Z,1018.17
2023-01-10T08:53:12.998Z,1018.19
2023-01-10T08:54:12.962Z,1018.21
2023-01-10T08:55:12.991Z,1018.17
2023-01-10T08:56:13.293Z,1018.21
2023-01-10T08:57:13.164Z,1018.24
2023-01-10T08:58:13.204Z,1018.22
2023-01-10T08:59:13.131Z,1018.23
2023-01-10T09:00:12.948Z,1018.19
2023-01-10T09:01:12.963Z,1018.19
2023-01-10T09:02:12.959Z,1018.25
2023-01-10T09:03:13.069Z,1018.24
2023-01-10T09:04:13.454Z,1018.19
2023-01-10T09:05:26.468Z,1018.26
2023-01-10T09:06:13.166Z,1018.24
2023-01-10T09:07:13.142Z,1018.27
2023-01-10T09:08:13.039Z,1018.27
2023-01-10T09:09:13.384Z,1018.22
2023-01-10T09:10:13.677Z,1018.24
2023-01-10T09:11:13.785Z,1018.24
2023-01-10T09:12:13.749Z,1018.23
2023-01-10T09:13:14.030Z,1018.29
2023-01-10T09:14:13.011Z,1018.28
2023-01-10T09:15:12.892Z,1018.28
2023-01-10T09:16:13.889Z,1018.29
2023-01-10T09:17:12.938Z,1018.29
2023-01-10T09:18:12.778Z,1018.33
2023-01-10T09:19:14.244Z,1018.25
2023-01-10T09:20:13.152Z,1018.32
2023-01-10T09:21:13.299Z,1018.39
2023-01-10T09:22:13.755Z,1018.40
2023-01-10T09:23:13.828Z,1018.40
2023-01-10T09:24:13.755Z,1018.31
2023-01-10T09:25:13.621Z,1018.32
2023-01-10T09:26:13.954Z,1018.33
2023-01-10T09:27:18.201Z,1018.32
2023-01-10T09:28:13.279Z,1018.35
2023-01-10T09:29:13.249Z,1018.39
2023-01-10T09:30:13.242Z,1018.40
2023-01-10T09:31:13.620Z,1018.39
2023-01-10T09:32:13.480Z,1018.40
2023-01-10T09:33:13.394Z,1018.42
2023-01-10T09:34:13.345Z,1018.42
2023-01-10T09:35:13.338Z,1018.46
2023-01-10T09:36:13.407Z,1018.46
2023-01-10T09:37:13.339Z,1018.44
2023-01-10T09:38:13.565Z,1018.46
2023-01-10T09:39:13.506Z,1018.46
2023-01-10T09:40:13.467Z,1018.45
2023-01-10T09:41:13.404Z,1018.43
2023-01-10T09:43:13.551Z,1018.47
2023-01-10T09:44:13.679Z,1018.49
2023-01-10T09:45:13.825Z,1018.51
2023-01-10T09:46:13.822Z,1018.47
2023-01-10T09:47:22.073Z,1018.51
2023-01-10T09:48:13.873Z,1018.52
2023-01-10T09:49:13.907Z,1018.54
2023-01-10T09:50:12.796Z,1018.46
2023-01-10T09:51:13.703Z,1018.50
2023-01-10T09:52:13.778Z,1018.52
2023-01-10T09:53:13.763Z,1018.55
2023-01-10T09:54:13.699Z,1018.55
2023-01-10T09:55:13.927Z,1018.49
2023-01-10T09:56:12.935Z,1018.61
2023-01-10T09:57:13.042Z,1018.57
2023-01-10T09:58:13.377Z,1018.60
2023-01-10T09:59:13.363Z,1018.63
2023-01-10T10:00:18.663Z,1018.59
2023-01-10T10:01:14.212Z,1018.52
2023-01-10T10:02:13.152Z,1018.60
2023-01-10T10:03:13.199Z,1018.60
2023-01-10T10:04:13.218Z,1018.57
2023-01-10T10:05:13.141Z,1018.59
2023-01-10T10:06:13.226Z,1018.54
2023-01-10T10:07:13.179Z,1018.60
2023-01-10T10:08:13.204Z,1018.61
2023-01-10T10:09:13.420Z,1018.64
2023-01-10T10:10:13.439Z,1018.66
2023-01-10T10:11:13.396Z,1018.69
2023-01-10T10:12:13.632Z,1018.68
2023-01-10T10:13:16.962Z,1018.69
2023-01-10T10:14:13.632Z,1018.68
2023-01-10T10:15:14.224Z,1018.63
2023-01-10T10:16:13.270Z,1018.63
2023-01-10T10:17:13.467Z,1018.66
2023-01-10T10:18:14.393Z,1018.62
2023-01-10T10:19:20.108Z,1018.64
2023-01-10T10:20:13.351Z,1018.61
2023-01-10T10:21:13.694Z,1018.61
2023-01-10T10:22:13.768Z,1018.54
2023-01-10T10:23:13.722Z,1018.51
2023-01-10T10:24:13.916Z,1018.50
2023-01-10T10:25:12.979Z,1018.51
2023-01-10T10:26:12.923Z,1018.53
2023-01-10T10:27:13.444Z,1018.52
2023-01-10T10:28:13.871Z,1018.48
2023-01-10T10:29:13.985Z,1018.43
2023-01-10T10:30:13.456Z,1018.38
2023-01-10T10:31:13.949Z,1018.39
2023-01-10T10:32:13.198Z,1018.39
2023-01-10T10:33:13.800Z,1018.33
2023-01-10T10:34:19.522Z,1018.32
2023-01-10T10:38:15.530Z,1018.33
2023-01-10T10:39:13.654Z,1018.38
2023-01-10T10:40:13.710Z,1018.41
2023-01-10T10:41:13.680Z,1018.36
2023-01-10T10:42:13.954Z,1018.32
2023-01-10T10:43:18.131Z,1018.37
2023-01-10T10:44:13.111Z,1018.38
2023-01-10T10:45:13.231Z,1018.36
2023-01-10T10:46:13.532Z,1018.27
2023-01-10T10:47:13.521Z,1018.35
2023-01-10T10:48:13.877Z,1018.31
2023-01-10T10:49:14.102Z,1018.32
2023-01-10T10:50:13.163Z,1018.30
2023-01-10T10:51:13.177Z,1018.31
2023-01-10T10:52:13.079Z,1018.31
2023-01-10T10:53:13.064Z,1018.33
2023-01-10T10:54:18.030Z,1018.39
2023-01-10T10:55:13.066Z,1018.42
2023-01-10T10:56:13.066Z,1018.37
2023-01-10T10:57:13.203Z,1018.30
2023-01-10T10:58:13.185Z,1018.27
2023-01-10T10:59:48.853Z,1018.23
2023-01-10T11:00:13.098Z,1018.20
2023-01-10T11:01:13.373Z,1018.20
2023-01-10T11:02:28.760Z,1018.16
2023-01-10T11:03:13.831Z,1018.16
2023-01-10T11:04:14.141Z,1018.12
2023-01-10T11:05:14.368Z,1018.14
2023-01-10T11:06:13.481Z,1018.12
2023-01-10T11:07:13.921Z,1018.14
2023-01-10T11:08:18.292Z,1018.04
2023-01-10T11:09:26.440Z,1018.04
2023-01-10T11:10:13.335Z,1018.08
2023-01-10T11:11:18.366Z,1018.10
2023-01-10T11:12:18.551Z,1018.16
2023-01-10T11:13:13.671Z,1018.21
2023-01-10T11:14:19.131Z,1018.17
2023-01-10T11:15:13.226Z,1018.11
2023-01-10T11:16:13.360Z,1018.14
2023-01-10T11:17:13.553Z,1018.16
2023-01-10T11:18:13.541Z,1018.08
2023-01-10T11:19:18.760Z,1018.08
2023-01-10T11:20:13.939Z,1018.09
2023-01-10T11:21:12.989Z,1018.03
2023-01-10T11:22:17.956Z,1018.00
2023-01-10T11:23:12.887Z,1018.05
2023-01-10T11:24:12.918Z,1017.98
2023-01-10T11:25:12.859Z,1018.00
2023-01-10T11:26:19.026Z,1018.01
2023-01-10T11:27:13.081Z,1017.98
2023-01-10T11:28:13.025Z,1018.00
2023-01-10T11:29:13.033Z,1018.00
2023-01-10T11:30:13.238Z,1017.89
2023-01-10T11:31:13.270Z,1017.93
2023-01-10T11:32:13.192Z,1017.94
2023-01-10T11:33:18.315Z,1017.91
2023-01-10T11:34:13.411Z,1017.93
2023-01-10T11:35:13.481Z,1018.03
2023-01-10T11:36:14.456Z,1017.92
2023-01-10T11:37:13.739Z,1017.92
2023-01-10T11:38:18.933Z,1017.99
2023-01-10T11:39:47.077Z,1018.00
2023-01-10T11:40:13.002Z,1017.94
2023-01-10T11:41:13.195Z,1017.93
2023-01-10T11:42:13.309Z,1017.94
2023-01-10T11:43:13.515Z,1017.90
2023-01-10T11:44:14.011Z,1017.92
2023-01-10T11:45:18.008Z,1017.94
2023-01-10T11:46:13.481Z,1017.97
2023-01-10T11:47:19.008Z,1017.96
2023-01-10T11:48:13.055Z,1018.01
2023-01-10T11:49:13.190Z,1017.99
2023-01-10T11:50:13.591Z,1017.98
2023-01-10T11:51:13.580Z,1017.97
2023-01-10T11:52:13.925Z,1017.92
2023-01-10T11:53:18.197Z,1017.86
2023-01-10T11:54:13.590Z,1017.90
2023-01-10T11:55:13.666Z,1017.92
2023-01-10T11:56:13.551Z,1017.95
2023-01-10T11:57:13.531Z,1017.97
2023-01-10T11:58:18.705Z,1017.87
2023-01-10T11:59:13.978Z,1017.88
2023-01-10T12:00:13.145Z,1017.90
2023-01-10T12:01:13.237Z,1017.86
2023-01-10T12:02:13.196Z,1017.82
2023-01-10T12:03:13.436Z,1017.80
2023-01-10T12:04:13.463Z,1017.82
2023-01-10T12:05:13.776Z,1017.85
2023-01-10T12:06:13.775Z,1017.80
2023-01-10T12:07:13.951Z,1017.81
2023-01-10T12:08:12.936Z,1017.76
2023-01-10T12:09:30.537Z,1017.77
2023-01-10T12:10:15.011Z,1017.67
2023-01-10T12:11:13.931Z,1017.68
2023-01-10T12:12:13.075Z,1017.66
2023-01-10T12:13:14.025Z,1017.72
2023-01-10T12:14:13.565Z,1017.62
2023-01-10T12:15:13.790Z,1017.66
2023-01-10T12:16:13.776Z,1017.67
2023-01-10T12:17:30.234Z,1017.61
2023-01-10T12:18:13.208Z,1017.63
2023-01-10T12:19:13.199Z,1017.68
2023-01-10T12:20:13.300Z,1017.65
2023-01-10T12:21:13.528Z,1017.64
2023-01-10T12:22:13.430Z,1017.65